VTPH/HHQ METAR and TAF weather

Enter ICAO airport designator
Station Type Date Time Source
VTPH METAR 2019/04/25 10:00 UTC NOAA

VTPH 251000Z VRB03KT 9999 FEW022 33/24 Q1005 NOSIG


Station Type Date Time Source
VTPH Decoded METAR 2019/04/25 10:00 UTC NOAA

Hua Hin, Thailand (VTPH) 12-35N 099-57E 6M
Apr 25, 2019 - 06:00 AM EDT / 2019.04.25 1000 UTC
Wind: Variable at 3 MPH (3 KT):0
Visibility: greater than 7 mile(s):0
Sky conditions: mostly clear
Temperature: 91 F (33 C)
Heat index: 101.5 F (38.6 C):1
Dew Point: 75 F (24 C)
Relative Humidity: 59%
Pressure (altimeter): 29.68 in. Hg (1005 hPa)
ob: VTPH 251000Z VRB03KT 9999 FEW022 33/24 Q1005 NOSIG
cycle: 10

Station Type Date Time Source
VTPH TAF 2019/04/25 06:00 UTC NOAA

TAF VTPH 250500Z 2506/2606 15010KT 9999 FEW030
BECMG 2514/2516 00000KT
BECMG 2602/2604 15010KT

Example: see airport list